createdAt,value
2024-01-01T00:01:50.267Z,60.19
2024-01-01T00:04:17.976Z,41.18
2024-01-01T00:06:47.023Z,316.94
2024-01-01T00:09:14.819Z,2757.65
2024-01-01T00:11:44.988Z,529.51
2024-01-01T00:14:14.032Z,68.87
2024-01-01T00:16:41.825Z,23.86
2024-01-01T00:19:09.671Z,29.01
2024-01-01T00:21:37.383Z,36.47
2024-01-01T00:24:07.118Z,26.41
2024-01-01T00:26:34.764Z,77.89
2024-01-01T00:29:02.592Z,135.95
2024-01-01T00:31:30.695Z,63.23
2024-01-01T00:33:58.597Z,50.61
2024-01-01T00:36:26.387Z,125.83
2024-01-01T00:38:54.061Z,286.05
2024-01-01T00:41:23.051Z,462.21
2024-01-01T00:43:50.762Z,401.84
2024-01-01T00:46:18.441Z,708.99
2024-01-01T00:48:46.262Z,916.63
2024-01-01T00:51:14.017Z,317.03
2024-01-01T00:53:41.652Z,14.12
2024-01-01T00:56:09.305Z,19.36
2024-01-01T00:58:38.435Z,24.60
2024-01-01T01:01:06.159Z,356.01
2024-01-01T01:03:34.452Z,154.80
2024-01-01T01:06:10.937Z,46.29
2024-01-01T01:08:42.319Z,478.83
2024-01-01T01:11:10.119Z,726.59
2024-01-01T01:13:39.311Z,125.70
2024-01-01T01:16:07.234Z,89.16
2024-01-01T01:18:34.970Z,44.26
2024-01-01T01:21:02.707Z,23.17
2024-01-01T01:23:30.349Z,44.35
2024-01-01T01:25:58.020Z,37.86
2024-01-01T01:28:25.861Z,59.75
2024-01-01T01:30:54.928Z,76.60
2024-01-01T01:33:22.833Z,1431.61
2024-01-01T01:35:50.551Z,695.21
2024-01-01T01:38:18.346Z,20.17
2024-01-01T01:40:46.049Z,36.98
2024-01-01T01:43:24.394Z,36.99
2024-01-01T01:45:53.106Z,856.56
2024-01-01T01:48:22.715Z,1809.30
2024-01-01T01:50:51.560Z,28.07
2024-01-01T01:53:20.195Z,14.66
2024-01-01T01:55:47.945Z,29.91
2024-01-01T01:58:15.782Z,458.69
2024-01-01T02:00:43.977Z,1015.80
2024-01-01T02:03:12.325Z,606.15
2024-01-01T02:05:41.550Z,2148.40
2024-01-01T02:08:10.572Z,899.99
2024-01-01T02:10:38.798Z,1452.51
2024-01-01T02:13:06.546Z,1167.81
2024-01-01T02:15:34.246Z,774.25
2024-01-01T02:18:02.038Z,504.98
2024-01-01T02:20:29.794Z,460.59
2024-01-01T02:22:58.866Z,832.87
2024-01-01T02:25:26.552Z,47.79
2024-01-01T02:27:54.181Z,576.44
2024-01-01T02:30:21.833Z,23.82
2024-01-01T02:32:49.486Z,969.35
2024-01-01T02:35:17.559Z,929.50
2024-01-01T02:37:45.299Z,1662.74
2024-01-01T02:40:14.567Z,879.16
2024-01-01T02:42:42.270Z,2357.72
2024-01-01T02:45:11.054Z,515.00
2024-01-01T02:47:38.969Z,1651.51
2024-01-01T02:50:07.615Z,1584.48
2024-01-01T02:52:35.389Z,1091.51
2024-01-01T02:55:03.223Z,1641.73
2024-01-01T02:57:32.267Z,22.42
2024-01-01T02:59:59.911Z,1010.43
2024-01-01T03:02:27.551Z,106.81
2024-01-01T03:04:55.399Z,723.63
2024-01-01T03:07:23.100Z,8.91
2024-01-01T03:09:50.702Z,20.22
2024-01-01T03:12:19.453Z,45.36
2024-01-01T03:14:48.703Z,31.93
2024-01-01T03:17:16.587Z,38.69
2024-01-01T03:19:44.801Z,123.85
2024-01-01T03:22:12.555Z,341.28
2024-01-01T03:24:40.215Z,734.91
2024-01-01T03:27:07.881Z,1825.64
2024-01-01T03:29:35.531Z,779.00
2024-01-01T03:32:05.486Z,1082.92
2024-01-01T03:34:33.307Z,1737.51
2024-01-01T03:37:01.056Z,1769.29
2024-01-01T03:39:29.195Z,2386.89
2024-01-01T03:41:56.941Z,1647.70
2024-01-01T03:44:24.637Z,2232.21
2024-01-01T03:46:52.375Z,1070.91
2024-01-01T03:49:21.570Z,360.06
2024-01-01T03:51:49.315Z,1976.96
2024-01-01T03:54:16.968Z,3146.35
2024-01-01T03:56:44.931Z,3420.49
2024-01-01T03:59:12.853Z,2083.25
2024-01-01T04:01:40.688Z,1918.40
2024-01-01T04:04:08.445Z,4086.70
2024-01-01T04:06:37.514Z,2922.51
2024-01-01T04:09:05.232Z,3792.06
2024-01-01T04:11:32.980Z,2195.39
2024-01-01T04:14:00.801Z,2115.14
2024-01-01T04:16:28.508Z,1637.54
2024-01-01T04:18:56.244Z,693.92
2024-01-01T04:21:23.943Z,357.60
2024-01-01T04:23:52.942Z,1032.35
2024-01-01T04:26:20.621Z,502.38
2024-01-01T04:28:48.300Z,65.27
2024-01-01T04:31:15.961Z,192.44
2024-01-01T04:33:43.623Z,44.88
2024-01-01T04:36:11.248Z,75.03
2024-01-01T04:38:38.879Z,137.95
2024-01-01T04:41:07.950Z,56.56
2024-01-01T04:43:35.726Z,54.04
2024-01-01T04:46:03.713Z,33.06
2024-01-01T04:48:31.410Z,228.36
2024-01-01T04:50:59.124Z,51.54
2024-01-01T04:53:27.066Z,295.28
2024-01-01T04:55:54.813Z,358.27
2024-01-01T04:58:23.871Z,25.18
2024-01-01T05:00:51.566Z,676.56
2024-01-01T05:03:19.294Z,680.52
2024-01-01T05:05:47.006Z,143.89
2024-01-01T05:08:14.766Z,55.40
2024-01-01T05:10:42.470Z,115.35
2024-01-01T05:13:10.173Z,381.89
2024-01-01T05:15:39.159Z,37.39
2024-01-01T05:18:07.363Z,41.22
2024-01-01T05:20:35.341Z,15.50
2024-01-01T05:23:03.031Z,34.25
2024-01-01T05:25:30.674Z,25.57
2024-01-01T05:27:58.325Z,24.02
2024-01-01T05:30:26.017Z,104.04
2024-01-01T05:32:55.138Z,379.12
2024-01-01T05:35:22.872Z,145.29
2024-01-01T05:37:50.593Z,362.34
2024-01-01T05:40:18.268Z,409.49
2024-01-01T05:42:45.910Z,146.48
2024-01-01T05:45:13.656Z,25.11
2024-01-01T05:47:41.326Z,334.87
2024-01-01T05:50:10.810Z,196.38
2024-01-01T05:52:38.632Z,270.99
2024-01-01T05:55:06.944Z,703.44
2024-01-01T05:57:35.281Z,499.16
2024-01-01T06:00:03.324Z,84.85
2024-01-01T06:02:31.002Z,2346.75
2024-01-01T06:04:58.738Z,1196.69
2024-01-01T06:07:27.903Z,533.81
2024-01-01T06:09:55.561Z,942.40
2024-01-01T06:12:23.206Z,459.79
2024-01-01T06:14:50.982Z,299.11
2024-01-01T06:17:20.369Z,433.64
2024-01-01T06:19:48.196Z,136.12
2024-01-01T06:22:15.866Z,22.17
2024-01-01T06:24:45.288Z,1486.42
2024-01-01T06:27:13.035Z,227.42
2024-01-01T06:29:40.644Z,33.14
2024-01-01T06:32:08.364Z,75.24
2024-01-01T06:34:36.121Z,334.05
2024-01-01T06:37:04.059Z,253.07
2024-01-01T06:39:31.676Z,55.36
2024-01-01T06:42:01.199Z,197.80
2024-01-01T06:44:28.839Z,2027.17
2024-01-01T06:46:56.525Z,1777.72
2024-01-01T06:49:24.210Z,1144.87
2024-01-01T06:51:51.904Z,12.63
2024-01-01T06:54:19.564Z,1515.13
2024-01-01T06:56:47.249Z,916.06
2024-01-01T06:59:17.449Z,46.13
2024-01-01T07:01:45.186Z,884.87
2024-01-01T07:04:13.063Z,1136.11
2024-01-01T07:06:43.034Z,296.59
2024-01-01T07:09:10.842Z,13.20
2024-01-01T07:11:38.519Z,893.37
2024-01-01T07:14:06.248Z,556.50
2024-01-01T07:16:35.329Z,16.15
2024-01-01T07:19:03.071Z,17.93
2024-01-01T07:21:30.758Z,40.74
2024-01-01T07:23:58.436Z,107.94
2024-01-01T07:26:26.094Z,238.43
2024-01-01T07:28:53.764Z,21.60
2024-01-01T07:31:21.429Z,224.08
2024-01-01T07:33:50.579Z,1293.12
2024-01-01T07:36:20.045Z,1599.18
2024-01-01T07:38:48.797Z,1015.16
2024-01-01T07:41:16.532Z,20.90
2024-01-01T07:43:44.230Z,12.64
2024-01-01T07:46:11.969Z,19.03
2024-01-01T07:48:39.727Z,20.07
2024-01-01T07:51:08.862Z,27.76
2024-01-01T07:53:36.510Z,62.16
2024-01-01T07:56:05.234Z,106.26
2024-01-01T07:58:32.906Z,152.51
2024-01-01T08:01:00.838Z,926.23
2024-01-01T08:03:28.652Z,46.82
2024-01-01T08:05:56.401Z,258.30
2024-01-01T08:08:25.491Z,48.19
2024-01-01T08:10:53.291Z,544.25
2024-01-01T08:13:21.107Z,35.13
2024-01-01T08:15:48.728Z,44.58
2024-01-01T08:18:16.462Z,70.26
2024-01-01T08:20:44.301Z,860.80
2024-01-01T08:23:12.113Z,822.22
2024-01-01T08:25:41.229Z,711.22
2024-01-01T08:28:08.959Z,659.69
2024-01-01T08:30:36.663Z,1303.20
2024-01-01T08:33:04.778Z,3051.84
2024-01-01T08:35:32.599Z,749.74
2024-01-01T08:38:00.320Z,1641.30
2024-01-01T08:40:28.042Z,2230.55
2024-01-01T08:42:57.245Z,2160.96
2024-01-01T08:45:24.912Z,922.74
2024-01-01T08:47:52.681Z,201.46
2024-01-01T08:50:20.570Z,584.43
2024-01-01T08:52:48.291Z,1013.16
2024-01-01T08:55:16.107Z,224.23
2024-01-01T08:57:43.770Z,1646.94
2024-01-01T09:00:16.189Z,407.27
2024-01-01T09:02:45.342Z,541.63
2024-01-01T09:05:15.432Z,2180.51
2024-01-01T09:07:43.184Z,608.59
2024-01-01T09:10:11.085Z,521.74
2024-01-01T09:12:38.776Z,478.00
2024-01-01T09:15:07.550Z,567.76
2024-01-01T09:17:36.752Z,1896.67
2024-01-01T09:20:05.729Z,3213.26
2024-01-01T09:22:33.481Z,2731.93
2024-01-01T09:25:01.319Z,1125.05
2024-01-01T09:27:29.011Z,1483.87
2024-01-01T09:29:56.678Z,372.51
2024-01-01T09:32:24.421Z,2717.12
2024-01-01T09:34:53.609Z,2154.72
2024-01-01T09:37:21.346Z,846.47
2024-01-01T09:39:49.028Z,1875.17
2024-01-01T09:42:16.901Z,1417.26
2024-01-01T09:44:47.685Z,1095.53
2024-01-01T09:47:15.479Z,1042.34
2024-01-01T09:49:43.761Z,1021.12
2024-01-01T09:52:14.667Z,526.53
2024-01-01T09:54:42.749Z,788.46
2024-01-01T09:57:10.417Z,811.89
2024-01-01T09:59:39.758Z,1491.02
2024-01-01T10:02:09.148Z,431.01
2024-01-01T10:04:37.071Z,686.43
2024-01-01T10:07:04.996Z,1265.99
2024-01-01T10:09:38.038Z,684.76
2024-01-01T10:12:10.330Z,683.49
2024-01-01T10:14:48.515Z,1006.54
2024-01-01T10:17:17.788Z,1242.45
2024-01-01T10:19:50.545Z,1597.07
2024-01-01T10:22:19.913Z,1740.54
2024-01-01T10:24:51.249Z,1369.09
2024-01-01T10:27:20.661Z,525.84
2024-01-01T10:29:48.374Z,1875.83
2024-01-01T10:32:16.838Z,1684.54
2024-01-01T10:34:45.952Z,1508.93
2024-01-01T10:37:15.054Z,3245.12
2024-01-01T10:39:45.283Z,670.56
2024-01-01T10:42:14.703Z,1826.86
2024-01-01T10:44:42.659Z,700.86
2024-01-01T10:47:11.376Z,982.02
2024-01-01T10:49:47.351Z,2014.10
2024-01-01T10:52:37.967Z,2833.61
2024-01-01T10:55:25.494Z,1432.30
2024-01-01T10:58:18.340Z,1771.09
2024-01-01T11:00:59.774Z,2675.32
2024-01-01T11:03:27.701Z,1080.79
2024-01-01T11:05:55.511Z,810.14
2024-01-01T11:08:26.796Z,1705.37
2024-01-01T11:10:56.048Z,966.55
2024-01-01T11:13:57.114Z,1544.83
2024-01-01T11:16:26.272Z,896.16
2024-01-01T11:18:54.541Z,1932.86
2024-01-01T11:21:30.289Z,1530.45
2024-01-01T11:24:19.613Z,1204.74
2024-01-01T11:26:46.233Z,2570.27
2024-01-01T11:29:27.779Z,1610.83
2024-01-01T11:32:04.244Z,3336.07
2024-01-01T11:34:40.427Z,1075.69
2024-01-01T11:37:20.597Z,1353.83
2024-01-01T11:39:57.749Z,781.81
2024-01-01T11:42:25.442Z,970.39
2024-01-01T11:45:06.473Z,82.26
2024-01-01T11:47:35.718Z,1437.65
2024-01-01T11:50:05.397Z,969.83
2024-01-01T11:52:33.756Z,475.22
2024-01-01T11:55:01.594Z,2918.17
2024-01-01T11:57:29.792Z,1420.65
2024-01-01T11:59:58.032Z,1579.33
2024-01-01T12:02:26.628Z,199.88
2024-01-01T12:04:56.348Z,354.55
2024-01-01T12:07:28.783Z,640.98
2024-01-01T12:10:04.984Z,2170.04
2024-01-01T12:12:32.875Z,1821.66
2024-01-01T12:15:10.609Z,1199.43
2024-01-01T12:17:42.539Z,1490.00
2024-01-01T12:20:15.390Z,1082.37
2024-01-01T12:22:43.539Z,113.39
2024-01-01T12:25:15.160Z,601.70
2024-01-01T12:27:43.013Z,644.23
2024-01-01T12:30:24.005Z,899.82
2024-01-01T12:32:51.847Z,992.96
2024-01-01T12:35:21.199Z,1679.34
2024-01-01T12:37:49.026Z,2014.86
2024-01-01T12:40:16.754Z,545.65
2024-01-01T12:42:45.882Z,49.06
2024-01-01T12:45:13.898Z,531.89
2024-01-01T12:47:41.656Z,605.27
2024-01-01T12:50:10.165Z,1032.21
2024-01-01T12:52:39.252Z,592.92
2024-01-01T12:55:07.982Z,470.78
2024-01-01T12:57:35.706Z,486.29
2024-01-01T13:00:03.832Z,351.63
2024-01-01T13:02:31.529Z,724.85
2024-01-01T13:04:59.516Z,429.75
2024-01-01T13:07:27.268Z,309.51
2024-01-01T13:09:56.294Z,336.13
2024-01-01T13:12:23.976Z,398.94
2024-01-01T13:14:51.668Z,70.64
2024-01-01T13:17:19.353Z,669.86
2024-01-01T13:19:47.309Z,252.14
2024-01-01T13:22:15.244Z,399.86
2024-01-01T13:24:43.077Z,189.28
2024-01-01T13:27:17.418Z,166.93
2024-01-01T13:29:45.087Z,173.16
2024-01-01T13:32:13.779Z,219.85
2024-01-01T13:34:41.541Z,162.10
2024-01-01T13:37:09.343Z,398.17
2024-01-01T13:39:37.009Z,401.56
2024-01-01T13:42:06.791Z,407.20
2024-01-01T13:44:35.841Z,274.31
2024-01-01T13:47:03.661Z,312.53
2024-01-01T13:49:33.549Z,253.18
2024-01-01T13:52:01.191Z,135.03
2024-01-01T13:54:28.851Z,93.43
2024-01-01T13:56:56.506Z,359.91
2024-01-01T13:59:24.330Z,1093.99
2024-01-01T14:01:53.510Z,1067.63
2024-01-01T14:04:21.287Z,275.31
2024-01-01T14:06:48.927Z,1607.29
2024-01-01T14:09:19.790Z,50.79
2024-01-01T14:11:49.876Z,278.49
2024-01-01T14:14:18.166Z,729.79
2024-01-01T14:16:46.854Z,509.95
2024-01-01T14:19:16.644Z,609.10
2024-01-01T14:21:44.545Z,167.20
2024-01-01T14:24:12.258Z,218.20
2024-01-01T14:26:41.994Z,898.00
2024-01-01T14:29:09.765Z,449.54
2024-01-01T14:31:37.456Z,419.06
2024-01-01T14:34:05.351Z,516.62
2024-01-01T14:36:34.422Z,460.27
2024-01-01T14:39:02.239Z,547.68
2024-01-01T14:41:30.102Z,890.68
2024-01-01T14:43:57.827Z,446.95
2024-01-01T14:46:25.605Z,490.74
2024-01-01T14:48:53.313Z,2430.89
2024-01-01T14:51:21.162Z,3123.92
2024-01-01T14:53:50.224Z,848.74
2024-01-01T14:56:20.537Z,2396.10
2024-01-01T14:58:49.980Z,3815.73
2024-01-01T15:01:21.286Z,1301.84
2024-01-01T15:03:49.545Z,1434.74
2024-01-01T15:06:18.480Z,2366.90
2024-01-01T15:08:46.376Z,307.78
2024-01-01T15:11:15.428Z,506.63
2024-01-01T15:13:43.159Z,574.70
2024-01-01T15:16:10.906Z,3810.00
2024-01-01T15:18:38.749Z,1502.05
2024-01-01T15:21:06.875Z,2177.52
2024-01-01T15:23:34.604Z,649.21
2024-01-01T15:26:06.822Z,274.10
2024-01-01T15:28:36.612Z,787.61
2024-01-01T15:31:04.729Z,428.28
2024-01-01T15:33:32.584Z,1220.80
2024-01-01T15:36:00.304Z,753.36
2024-01-01T15:38:28.004Z,1143.79
2024-01-01T15:40:56.159Z,1139.53
2024-01-01T15:43:23.855Z,664.14
2024-01-01T15:45:52.906Z,1750.04
2024-01-01T15:48:20.647Z,767.73
2024-01-01T15:50:53.258Z,826.40
2024-01-01T15:53:25.684Z,464.52
2024-01-01T15:55:53.439Z,1274.60
2024-01-01T15:58:21.292Z,513.34
2024-01-01T16:00:49.173Z,459.44
2024-01-01T16:03:18.215Z,1102.25
2024-01-01T16:05:46.219Z,962.01
2024-01-01T16:08:14.011Z,679.67
2024-01-01T16:10:42.185Z,1244.86
2024-01-01T16:13:09.845Z,482.62
2024-01-01T16:15:37.510Z,357.91
2024-01-01T16:18:05.282Z,389.34
2024-01-01T16:20:34.451Z,1281.41
2024-01-01T16:23:02.320Z,1392.48
2024-01-01T16:25:30.011Z,627.03
2024-01-01T16:27:57.686Z,557.33
2024-01-01T16:30:25.386Z,984.47
2024-01-01T16:32:53.080Z,1354.41
2024-01-01T16:35:20.774Z,322.66
2024-01-01T16:37:51.183Z,841.87
2024-01-01T16:40:19.702Z,751.96
2024-01-01T16:42:47.782Z,276.80
2024-01-01T16:45:15.562Z,519.82
2024-01-01T16:47:43.418Z,135.80
2024-01-01T16:50:11.375Z,164.17
2024-01-01T16:52:39.052Z,83.84
2024-01-01T16:55:08.279Z,38.07
2024-01-01T16:57:35.976Z,21.62
2024-01-01T17:00:05.086Z,20.72
2024-01-01T17:02:32.934Z,27.52
2024-01-01T17:05:00.710Z,26.46
2024-01-01T17:07:28.373Z,27.90
2024-01-01T17:09:56.028Z,29.38
2024-01-01T17:12:25.088Z,31.14
2024-01-01T17:14:52.785Z,23.72
2024-01-01T17:17:20.435Z,41.23
2024-01-01T17:19:48.124Z,50.56
2024-01-01T17:22:15.763Z,41.54
2024-01-01T17:24:43.401Z,57.18
2024-01-01T17:27:13.611Z,36.75
2024-01-01T17:29:43.038Z,46.65
2024-01-01T17:32:10.807Z,29.59
2024-01-01T17:34:38.593Z,24.94
2024-01-01T17:37:09.009Z,31.30
2024-01-01T17:39:38.136Z,26.07
2024-01-01T17:42:06.054Z,20.43
2024-01-01T17:44:33.735Z,21.86
2024-01-01T17:47:02.779Z,19.08
2024-01-01T17:49:33.039Z,20.86
2024-01-01T17:52:00.681Z,18.69
2024-01-01T17:54:28.407Z,24.10
2024-01-01T17:56:56.360Z,25.23
2024-01-01T17:59:24.001Z,28.45
2024-01-01T18:01:51.636Z,25.35
2024-01-01T18:04:20.622Z,31.80
2024-01-01T18:06:48.515Z,26.27
2024-01-01T18:09:16.272Z,22.43
2024-01-01T18:11:43.895Z,13.51
2024-01-01T18:14:11.670Z,25.56
2024-01-01T18:16:39.383Z,6.08
2024-01-01T18:19:07.170Z,16.36
2024-01-01T18:21:39.002Z,10.97
2024-01-01T18:24:07.068Z,8.96
2024-01-01T18:26:34.724Z,9.72
2024-01-01T18:29:02.418Z,10.78
2024-01-01T18:31:30.057Z,12.89
2024-01-01T18:33:57.687Z,10.38
2024-01-01T18:36:25.367Z,14.43
2024-01-01T18:38:54.352Z,11.22
2024-01-01T18:41:21.986Z,15.26
2024-01-01T18:43:49.649Z,13.33
2024-01-01T18:46:17.303Z,14.59
2024-01-01T18:48:45.182Z,16.81
2024-01-01T18:51:13.217Z,20.26
2024-01-01T18:53:41.203Z,20.96
2024-01-01T18:56:10.257Z,38.23
2024-01-01T18:58:37.928Z,38.72
2024-01-01T19:01:06.168Z,40.41
2024-01-01T19:03:33.843Z,41.98
2024-01-01T19:06:01.672Z,29.03
2024-01-01T19:08:29.397Z,30.57
2024-01-01T19:10:57.074Z,31.12
2024-01-01T19:13:26.100Z,26.96
2024-01-01T19:15:54.065Z,103.50
2024-01-01T19:18:22.060Z,156.42
2024-01-01T19:20:49.851Z,201.02
2024-01-01T19:23:17.626Z,182.80
2024-01-01T19:25:46.234Z,144.21
2024-01-01T19:28:13.908Z,100.16
2024-01-01T19:30:42.940Z,127.49
2024-01-01T19:33:11.405Z,115.42
2024-01-01T19:35:39.339Z,341.26
2024-01-01T19:38:07.035Z,126.12
2024-01-01T19:40:34.738Z,82.68
2024-01-01T19:43:02.413Z,104.50
2024-01-01T19:45:30.059Z,131.38
2024-01-01T19:47:59.129Z,60.14
2024-01-01T19:50:26.881Z,150.83
2024-01-01T19:52:54.617Z,56.22
2024-01-01T19:55:22.351Z,629.31
2024-01-01T19:57:50.023Z,170.30
2024-01-01T20:00:18.565Z,857.04
2024-01-01T20:02:46.234Z,402.76
2024-01-01T20:05:15.805Z,577.36
2024-01-01T20:07:43.502Z,399.23
2024-01-01T20:10:11.197Z,428.73
2024-01-01T20:12:38.924Z,1484.11
2024-01-01T20:15:07.270Z,2573.69
2024-01-01T20:17:35.030Z,1732.62
2024-01-01T20:20:02.842Z,584.72
2024-01-01T20:22:32.023Z,344.74
2024-01-01T20:24:59.744Z,594.93
2024-01-01T20:27:27.515Z,664.80
2024-01-01T20:29:55.149Z,312.40
2024-01-01T20:32:23.070Z,536.34
2024-01-01T20:34:50.912Z,241.07
2024-01-01T20:37:18.570Z,896.07
2024-01-01T20:39:47.567Z,166.59
2024-01-01T20:42:15.212Z,1029.03
2024-01-01T20:44:42.869Z,785.99
2024-01-01T20:47:10.604Z,496.12
2024-01-01T20:49:38.297Z,109.42
2024-01-01T20:52:12.349Z,56.69
2024-01-01T20:54:48.788Z,45.58
2024-01-01T20:57:16.422Z,57.34
2024-01-01T20:59:44.292Z,88.61
2024-01-01T21:02:12.001Z,63.36
2024-01-01T21:04:39.965Z,22.65
2024-01-01T21:07:07.717Z,15.52
2024-01-01T21:09:35.349Z,15.28
2024-01-01T21:12:04.986Z,8.31
2024-01-01T21:14:32.744Z,8.47
2024-01-01T21:17:00.433Z,8.06
2024-01-01T21:19:28.177Z,16.26
2024-01-01T21:21:55.855Z,21.43
2024-01-01T21:24:23.490Z,21.25
2024-01-01T21:26:51.112Z,20.59
2024-01-01T21:29:20.126Z,26.78
2024-01-01T21:31:47.775Z,20.39
2024-01-01T21:34:15.729Z,18.50
2024-01-01T21:36:43.342Z,23.50
2024-01-01T21:39:10.960Z,21.84
2024-01-01T21:41:38.586Z,20.09
2024-01-01T21:44:06.229Z,44.55
2024-01-01T21:46:40.399Z,54.66
2024-01-01T21:49:08.214Z,41.71
2024-01-01T21:51:35.953Z,51.69
2024-01-01T21:54:03.727Z,58.56
2024-01-01T21:56:31.489Z,40.64
2024-01-01T21:58:59.145Z,44.45
2024-01-01T22:01:26.777Z,73.71
2024-01-01T22:03:55.758Z,68.07
2024-01-01T22:06:23.767Z,45.06
2024-01-01T22:08:51.508Z,81.46
2024-01-01T22:11:20.277Z,68.52
2024-01-01T22:13:48.026Z,57.96
2024-01-01T22:16:15.650Z,72.89
2024-01-01T22:18:43.361Z,110.75
2024-01-01T22:21:17.553Z,472.05
2024-01-01T22:23:45.333Z,1525.31
2024-01-01T22:26:13.851Z,576.85
2024-01-01T22:28:43.586Z,1680.37
2024-01-01T22:31:13.159Z,3707.87
2024-01-01T22:33:42.736Z,2803.51
2024-01-01T22:36:10.668Z,3771.03
2024-01-01T22:38:39.759Z,1986.61
2024-01-01T22:41:07.825Z,4171.85
2024-01-01T22:43:35.740Z,2605.18
2024-01-01T22:46:03.908Z,1473.13
2024-01-01T22:48:32.938Z,3064.21
2024-01-01T22:51:00.670Z,2188.20
2024-01-01T22:53:28.347Z,2189.18
2024-01-01T22:55:57.407Z,1268.92
2024-01-01T22:58:25.080Z,1473.34
2024-01-01T23:00:52.753Z,928.77
2024-01-01T23:03:20.524Z,1706.84
2024-01-01T23:05:48.428Z,726.59
2024-01-01T23:08:16.211Z,951.30
2024-01-01T23:10:44.306Z,148.82
2024-01-01T23:13:13.430Z,198.88
2024-01-01T23:15:41.086Z,674.09
2024-01-01T23:18:08.875Z,2186.80
2024-01-01T23:20:36.648Z,1456.29
2024-01-01T23:23:04.587Z,449.39
2024-01-01T23:25:43.442Z,317.09
2024-01-01T23:28:19.269Z,1186.86
2024-01-01T23:30:46.969Z,230.79
2024-01-01T23:33:14.942Z,143.94
2024-01-01T23:35:43.056Z,151.93
2024-01-01T23:38:10.740Z,446.75
2024-01-01T23:40:38.421Z,450.46
2024-01-01T23:43:06.233Z,211.60
2024-01-01T23:45:35.468Z,63.63
2024-01-01T23:48:03.486Z,62.80
2024-01-01T23:50:31.166Z,84.60
2024-01-01T23:52:58.878Z,622.69
2024-01-01T23:55:26.595Z,367.58
2024-01-01T23:57:54.225Z,52.80
